createdAt,value
2018-12-07T00:01:44.070Z,13.40
2018-12-07T00:06:46.397Z,11.87
2018-12-07T00:11:48.157Z,11.00
2018-12-07T00:16:50.119Z,8.33
2018-12-07T00:21:51.907Z,11.33
2018-12-07T00:26:53.695Z,11.30
2018-12-07T00:31:56.159Z,11.40
2018-12-07T00:36:59.282Z,11.10
2018-12-07T00:42:01.376Z,13.40
2018-12-07T00:47:03.870Z,13.10
2018-12-07T00:52:05.949Z,11.67
2018-12-07T00:57:08.238Z,13.13
2018-12-07T01:02:10.733Z,15.43
2018-12-07T01:07:15.349Z,17.10
2018-12-07T01:12:18.938Z,20.60
2018-12-07T01:17:21.691Z,28.70
2018-12-07T01:22:25.568Z,27.80
2018-12-07T01:27:28.117Z,24.07
2018-12-07T01:32:35.527Z,33.97
2018-12-07T01:37:40.162Z,32.07
2018-12-07T01:42:42.969Z,38.50
2018-12-07T01:47:45.467Z,39.17
2018-12-07T01:52:47.350Z,38.87
2018-12-07T01:57:50.268Z,41.07
2018-12-07T02:02:52.090Z,42.27
2018-12-07T02:07:53.892Z,39.83
2018-12-07T02:13:02.700Z,45.07
2018-12-07T02:18:12.301Z,45.93
2018-12-07T02:23:14.799Z,47.73
2018-12-07T02:28:16.786Z,42.33
2018-12-07T02:33:19.165Z,40.07
2018-12-07T02:38:21.665Z,36.47
2018-12-07T02:43:23.449Z,36.30
2018-12-07T02:48:25.426Z,37.57
2018-12-07T02:53:28.535Z,34.27
2018-12-07T02:58:30.833Z,18.40
2018-12-07T03:03:32.621Z,30.30
2018-12-07T03:08:47.040Z,28.50
2018-12-07T03:13:49.564Z,31.03
2018-12-07T03:18:51.870Z,28.27
2018-12-07T03:29:22.848Z,27.20
2018-12-07T03:34:24.727Z,31.90
2018-12-07T03:39:26.619Z,31.83
2018-12-07T03:44:28.906Z,34.73
2018-12-07T03:49:30.983Z,30.40
2018-12-07T03:54:33.070Z,31.10
2018-12-07T03:59:34.949Z,30.97
2018-12-07T04:04:36.823Z,33.13
2018-12-07T04:09:38.701Z,33.20
2018-12-07T04:14:47.806Z,23.30
2018-12-07T04:19:49.824Z,35.67
2018-12-07T04:24:52.324Z,29.97
2018-12-07T04:35:26.387Z,32.83
2018-12-07T04:40:28.264Z,31.33
2018-12-07T04:45:30.345Z,32.57
2018-12-07T04:50:32.652Z,36.80
2018-12-07T04:55:34.921Z,37.20
2018-12-07T05:00:37.617Z,29.23
2018-12-07T05:05:39.701Z,33.13
2018-12-07T05:10:41.581Z,37.97
2018-12-07T05:15:44.279Z,37.30
2018-12-07T05:20:46.363Z,35.00
2018-12-07T05:25:48.445Z,34.47
2018-12-07T05:30:50.533Z,36.33
2018-12-07T05:35:53.020Z,33.00
2018-12-07T05:40:55.308Z,20.97
2018-12-07T05:45:57.058Z,21.53
2018-12-07T05:50:59.271Z,35.00
2018-12-07T05:56:01.374Z,31.67
2018-12-07T06:01:03.411Z,30.30
2018-12-07T06:06:05.336Z,34.43
2018-12-07T06:11:07.836Z,20.50
2018-12-07T06:16:09.763Z,29.90
2018-12-07T06:21:11.938Z,19.80
2018-12-07T06:26:13.736Z,15.73
2018-12-07T06:31:15.945Z,22.13
2018-12-07T06:36:17.740Z,25.13
2018-12-07T06:41:20.164Z,19.40
2018-12-07T06:46:22.425Z,19.10
2018-12-07T06:51:25.156Z,22.90
2018-12-07T06:56:26.979Z,16.40
2018-12-07T07:01:29.063Z,14.37
2018-12-07T07:06:32.136Z,21.17
2018-12-07T07:11:37.391Z,13.43
2018-12-07T07:16:39.441Z,20.17
2018-12-07T07:21:42.697Z,13.23
2018-12-07T07:26:44.777Z,12.40
2018-12-07T07:31:46.525Z,12.20
2018-12-07T07:36:48.302Z,11.50
2018-12-07T07:41:53.791Z,12.47
2018-12-07T07:46:56.001Z,10.67
2018-12-07T07:51:57.792Z,9.77
2018-12-07T07:57:01.086Z,8.60
2018-12-07T08:07:32.768Z,5.20
2018-12-07T08:12:35.236Z,6.87
2018-12-07T08:17:37.015Z,5.97
2018-12-07T08:28:08.686Z,4.40
2018-12-07T08:33:10.996Z,4.67
2018-12-07T08:38:12.732Z,4.73
2018-12-07T08:43:15.349Z,4.47
2018-12-07T08:48:17.408Z,3.90
2018-12-07T08:53:19.192Z,4.47
2018-12-07T08:58:21.054Z,4.53
2018-12-07T09:03:23.454Z,4.00
2018-12-07T09:08:25.216Z,3.40
2018-12-07T09:13:28.516Z,2.00
2018-12-07T09:18:30.661Z,2.60
2018-12-07T09:23:32.431Z,2.90
2018-12-07T09:28:34.448Z,2.53
2018-12-07T09:33:36.240Z,3.57
2018-12-07T09:38:38.320Z,3.10
2018-12-07T09:43:40.419Z,2.23
2018-12-07T09:48:42.261Z,2.97
2018-12-07T09:53:44.048Z,1.90
2018-12-07T09:58:46.778Z,1.60
2018-12-07T10:03:48.955Z,2.00
2018-12-07T10:08:50.760Z,3.70
2018-12-07T10:13:52.886Z,3.60
2018-12-07T10:18:54.684Z,3.73
2018-12-07T10:23:57.592Z,3.53
2018-12-07T10:28:59.756Z,2.83
2018-12-07T10:34:01.741Z,4.37
2018-12-07T10:39:04.901Z,4.00
2018-12-07T10:44:07.300Z,4.43
2018-12-07T10:49:09.025Z,3.50
2018-12-07T10:54:10.781Z,3.20
2018-12-07T10:59:13.691Z,3.33
2018-12-07T11:04:21.348Z,3.50
2018-12-07T11:09:28.995Z,2.37
2018-12-07T11:14:36.675Z,2.70
2018-12-07T11:19:45.178Z,2.37
2018-12-07T11:25:11.512Z,2.40
2018-12-07T11:30:19.288Z,1.93
2018-12-07T11:35:23.423Z,1.73
2018-12-07T11:40:25.168Z,1.40
2018-12-07T11:45:30.004Z,1.97
2018-12-07T11:50:35.351Z,1.57
2018-12-07T11:55:38.496Z,1.80
2018-12-07T12:00:40.269Z,1.50
2018-12-07T12:05:42.343Z,1.87
2018-12-07T12:10:44.068Z,0.97
2018-12-07T12:15:45.861Z,1.17
2018-12-07T12:20:47.954Z,2.07
2018-12-07T12:25:50.008Z,1.93
2018-12-07T12:30:52.053Z,1.80
2018-12-07T12:35:53.832Z,1.60
2018-12-07T12:40:56.030Z,1.30
2018-12-07T12:45:57.752Z,1.87
2018-12-07T12:50:59.516Z,2.50
2018-12-07T12:56:01.650Z,2.00
2018-12-07T13:01:03.680Z,1.50
2018-12-07T13:06:05.450Z,2.47
2018-12-07T13:11:07.249Z,1.93
2018-12-07T13:16:11.249Z,1.73
2018-12-07T13:21:14.261Z,4.23
2018-12-07T13:26:16.297Z,2.27
2018-12-07T13:31:18.061Z,2.23
2018-12-07T13:36:20.041Z,2.90
2018-12-07T13:41:21.821Z,3.37
2018-12-07T13:46:23.853Z,3.43
2018-12-07T13:51:31.709Z,4.23
2018-12-07T13:56:35.269Z,6.27
2018-12-07T14:01:37.252Z,7.97
2018-12-07T14:06:39.328Z,9.10
2018-12-07T14:11:42.114Z,10.50
2018-12-07T14:16:44.486Z,12.00
2018-12-07T14:21:46.346Z,12.10
2018-12-07T14:26:48.424Z,12.17
2018-12-07T14:31:50.640Z,11.63
2018-12-07T14:36:52.452Z,8.30
2018-12-07T14:41:54.250Z,5.53
2018-12-07T14:46:57.122Z,8.50
2018-12-07T14:51:59.417Z,7.00
2018-12-07T14:57:01.336Z,7.60
2018-12-07T15:02:03.397Z,6.77
2018-12-07T15:07:05.469Z,10.00
2018-12-07T15:12:07.441Z,8.83
2018-12-07T15:17:12.440Z,8.73
2018-12-07T15:22:16.342Z,6.10
2018-12-07T15:27:18.413Z,6.87
2018-12-07T15:32:20.542Z,8.20
2018-12-07T15:37:22.788Z,11.50
2018-12-07T15:42:24.874Z,12.03
2018-12-07T15:47:29.878Z,14.23
2018-12-07T15:52:31.896Z,11.27
2018-12-07T15:57:34.119Z,12.87
2018-12-07T16:02:36.952Z,10.30
2018-12-07T16:07:38.752Z,11.10
2018-12-07T16:12:40.731Z,8.20
2018-12-07T16:17:43.072Z,8.10
2018-12-07T16:22:44.986Z,8.20
2018-12-07T16:27:47.115Z,10.97
2018-12-07T16:32:49.162Z,10.07
2018-12-07T16:37:51.227Z,5.53
2018-12-07T16:42:53.332Z,6.43
2018-12-07T16:47:55.778Z,10.53
2018-12-07T16:52:57.627Z,4.80
2018-12-07T16:57:59.965Z,5.73
2018-12-07T17:03:02.154Z,8.40
2018-12-07T17:08:04.492Z,6.57
2018-12-07T17:13:06.486Z,6.40
2018-12-07T17:18:08.700Z,6.33
2018-12-07T17:23:11.637Z,8.47
2018-12-07T17:28:14.260Z,8.23
2018-12-07T17:33:17.438Z,9.83
2018-12-07T17:38:23.128Z,10.77
2018-12-07T17:43:26.192Z,12.70
2018-12-07T17:48:28.823Z,9.37
2018-12-07T17:53:32.629Z,13.30
2018-12-07T17:58:37.011Z,12.83
2018-12-07T18:03:39.686Z,10.10
2018-12-07T18:08:42.303Z,10.30
2018-12-07T18:13:45.119Z,15.60
2018-12-07T18:18:48.792Z,8.27
2018-12-07T18:23:52.375Z,13.07
2018-12-07T18:28:56.636Z,15.17
2018-12-07T18:34:01.808Z,14.37
2018-12-07T18:39:10.918Z,11.20
2018-12-07T18:44:13.899Z,11.07
2018-12-07T18:49:17.030Z,8.80
2018-12-07T18:54:19.618Z,7.90
2018-12-07T18:59:25.012Z,8.13
2018-12-07T19:04:30.371Z,9.37
2018-12-07T19:09:33.456Z,15.60
2018-12-07T19:14:36.706Z,11.20
2018-12-07T19:19:40.014Z,13.83
2018-12-07T19:24:45.833Z,10.60
2018-12-07T19:29:48.888Z,15.67
2018-12-07T19:34:52.289Z,7.37
2018-12-07T19:39:55.661Z,5.67
2018-12-07T19:44:59.295Z,4.30
2018-12-07T19:50:03.610Z,4.83
2018-12-07T19:55:07.350Z,4.77
2018-12-07T20:00:13.823Z,6.10
2018-12-07T20:05:26.608Z,7.23
2018-12-07T20:10:32.812Z,6.17
2018-12-07T20:38:13.359Z,8.47
2018-12-07T20:43:16.506Z,7.83
2018-12-07T20:48:21.523Z,7.43
2018-12-07T20:53:25.219Z,6.87
2018-12-07T20:58:28.420Z,6.57
2018-12-07T21:04:00.111Z,7.87
2018-12-07T21:09:22.725Z,6.63
2018-12-07T21:14:26.078Z,5.57
2018-12-07T21:19:28.610Z,7.20
2018-12-07T21:24:31.864Z,4.93
2018-12-07T21:29:34.014Z,4.87
2018-12-07T21:35:02.176Z,5.80
2018-12-07T21:40:10.885Z,5.23
2018-12-07T21:45:12.988Z,6.92
2018-12-07T21:50:20.267Z,4.80
2018-12-07T21:55:22.216Z,6.83
2018-12-07T22:00:24.803Z,5.70
2018-12-07T22:05:27.036Z,7.40
2018-12-07T22:10:32.262Z,6.27
2018-12-07T22:15:34.223Z,5.90
2018-12-07T22:20:36.064Z,4.57
2018-12-07T22:25:38.109Z,5.97
2018-12-07T22:31:00.134Z,4.87
2018-12-07T22:36:02.022Z,4.30
2018-12-07T22:41:04.565Z,5.20
2018-12-07T22:51:44.932Z,6.70
2018-12-07T22:56:47.011Z,4.80
2018-12-07T23:01:49.148Z,5.93
2018-12-07T23:06:52.885Z,6.60
2018-12-07T23:11:54.828Z,6.80
2018-12-07T23:16:58.165Z,5.50
2018-12-07T23:22:00.273Z,5.93
2018-12-07T23:27:04.586Z,7.13
2018-12-07T23:32:07.278Z,6.13
2018-12-07T23:37:09.586Z,8.30
2018-12-07T23:42:12.622Z,8.40
2018-12-07T23:47:14.733Z,5.83
2018-12-07T23:52:17.466Z,5.40
2018-12-07T23:57:19.377Z,6.40
